sensor_id;sensor_type;location;lat;lon;timestamp;temperature;humidity
18408;DHT22;9330;52.210;21.174;2024-03-08T00:00:22;-2.30;48.90
18408;DHT22;9330;52.210;21.174;2024-03-08T00:02:50;-2.20;91.10
18408;DHT22;9330;52.210;21.174;2024-03-08T00:05:17;-2.20;26.70
18408;DHT22;9330;52.210;21.174;2024-03-08T00:07:44;-2.40;48.10
18408;DHT22;9330;52.210;21.174;2024-03-08T00:10:12;-2.30;31.60
18408;DHT22;9330;52.210;21.174;2024-03-08T00:12:39;-2.30;51.80
18408;DHT22;9330;52.210;21.174;2024-03-08T00:15:08;-2.40;63.00
18408;DHT22;9330;52.210;21.174;2024-03-08T00:17:35;-2.40;99.90
18408;DHT22;9330;52.210;21.174;2024-03-08T00:20:04;-2.50;91.20
18408;DHT22;9330;52.210;21.174;2024-03-08T00:22:33;-2.40;99.90
18408;DHT22;9330;52.210;21.174;2024-03-08T00:25:01;-2.40;99.90
18408;DHT22;9330;52.210;21.174;2024-03-08T00:27:28;-2.50;99.90
18408;DHT22;9330;52.210;21.174;2024-03-08T00:29:56;-2.50;99.90
18408;DHT22;9330;52.210;21.174;2024-03-08T00:32:23;-2.40;99.90
18408;DHT22;9330;52.210;21.174;2024-03-08T00:34:50;-2.50;99.90
18408;DHT22;9330;52.210;21.174;2024-03-08T00:37:19;-2.60;99.90
18408;DHT22;9330;52.210;21.174;2024-03-08T00:39:47;-2.60;99.90
18408;DHT22;9330;52.210;21.174;2024-03-08T00:42:15;-2.50;48.60
18408;DHT22;9330;52.210;21.174;2024-03-08T00:44:41;-2.60;46.90
18408;DHT22;9330;52.210;21.174;2024-03-08T00:47:08;-2.60;89.50
18408;DHT22;9330;52.210;21.174;2024-03-08T00:49:35;-2.60;99.90
18408;DHT22;9330;52.210;21.174;2024-03-08T00:52:04;-2.70;99.90
18408;DHT22;9330;52.210;21.174;2024-03-08T00:54:33;-2.70;99.90
18408;DHT22;9330;52.210;21.174;2024-03-08T00:57:01;-2.70;99.90
18408;DHT22;9330;52.210;21.174;2024-03-08T00:59:29;-2.70;99.90
18408;DHT22;9330;52.210;21.174;2024-03-08T01:01:58;-2.80;99.90
18408;DHT22;9330;52.210;21.174;2024-03-08T01:04:25;-2.70;99.90
18408;DHT22;9330;52.210;21.174;2024-03-08T01:06:54;-2.80;99.90
18408;DHT22;9330;52.210;21.174;2024-03-08T01:09:21;-2.80;99.90
18408;DHT22;9330;52.210;21.174;2024-03-08T01:11:49;-2.80;99.90
18408;DHT22;9330;52.210;21.174;2024-03-08T01:14:16;-2.80;99.90
18408;DHT22;9330;52.210;21.174;2024-03-08T01:16:43;-2.90;99.90
18408;DHT22;9330;52.210;21.174;2024-03-08T01:19:10;-2.90;99.90
18408;DHT22;9330;52.210;21.174;2024-03-08T01:21:37;-2.90;99.90
18408;DHT22;9330;52.210;21.174;2024-03-08T01:24:04;-2.90;99.90
18408;DHT22;9330;52.210;21.174;2024-03-08T01:26:31;-2.90;99.90
18408;DHT22;9330;52.210;21.174;2024-03-08T01:29:01;-2.90;99.90
18408;DHT22;9330;52.210;21.174;2024-03-08T01:31:28;-2.90;99.90
18408;DHT22;9330;52.210;21.174;2024-03-08T01:33:55;-2.90;99.90
18408;DHT22;9330;52.210;21.174;2024-03-08T01:36:22;-3.00;99.90
18408;DHT22;9330;52.210;21.174;2024-03-08T01:38:50;-3.00;99.90
18408;DHT22;9330;52.210;21.174;2024-03-08T01:41:17;-3.00;99.90
18408;DHT22;9330;52.210;21.174;2024-03-08T01:43:44;-3.10;99.90
18408;DHT22;9330;52.210;21.174;2024-03-08T01:46:15;-3.00;99.90
18408;DHT22;9330;52.210;21.174;2024-03-08T01:48:43;-2.90;99.90
18408;DHT22;9330;52.210;21.174;2024-03-08T01:51:10;-3.10;99.90
18408;DHT22;9330;52.210;21.174;2024-03-08T01:53:37;-3.10;99.90
18408;DHT22;9330;52.210;21.174;2024-03-08T01:56:06;-3.10;99.90
18408;DHT22;9330;52.210;21.174;2024-03-08T01:58:35;-3.20;99.90
18408;DHT22;9330;52.210;21.174;2024-03-08T02:01:02;-3.20;99.90
18408;DHT22;9330;52.210;21.174;2024-03-08T02:03:31;-3.10;99.90
18408;DHT22;9330;52.210;21.174;2024-03-08T02:05:58;-3.20;99.90
18408;DHT22;9330;52.210;21.174;2024-03-08T02:08:25;-3.30;99.90
18408;DHT22;9330;52.210;21.174;2024-03-08T02:10:52;-3.20;99.90
18408;DHT22;9330;52.210;21.174;2024-03-08T02:13:19;-3.20;99.90
18408;DHT22;9330;52.210;21.174;2024-03-08T02:15:57;-3.20;99.90
18408;DHT22;9330;52.210;21.174;2024-03-08T02:18:25;-3.20;99.90
18408;DHT22;9330;52.210;21.174;2024-03-08T02:20:53;-3.30;99.90
18408;DHT22;9330;52.210;21.174;2024-03-08T02:23:21;-3.30;99.90
18408;DHT22;9330;52.210;21.174;2024-03-08T02:25:48;-3.30;99.90
18408;DHT22;9330;52.210;21.174;2024-03-08T02:28:15;-3.30;99.90
18408;DHT22;9330;52.210;21.174;2024-03-08T02:30:44;-3.30;99.90
18408;DHT22;9330;52.210;21.174;2024-03-08T02:33:13;-3.40;99.90
18408;DHT22;9330;52.210;21.174;2024-03-08T02:35:42;-3.40;99.90
18408;DHT22;9330;52.210;21.174;2024-03-08T02:38:12;-3.50;99.90
18408;DHT22;9330;52.210;21.174;2024-03-08T02:40:41;-3.40;99.90
18408;DHT22;9330;52.210;21.174;2024-03-08T02:43:08;-3.40;99.90
18408;DHT22;9330;52.210;21.174;2024-03-08T02:45:35;-3.40;99.90
18408;DHT22;9330;52.210;21.174;2024-03-08T02:48:02;-3.40;99.90
18408;DHT22;9330;52.210;21.174;2024-03-08T02:50:29;-3.40;99.90
18408;DHT22;9330;52.210;21.174;2024-03-08T02:52:56;-3.50;99.90
18408;DHT22;9330;52.210;21.174;2024-03-08T02:55:24;-3.50;99.90
18408;DHT22;9330;52.210;21.174;2024-03-08T02:57:51;-3.60;99.90
18408;DHT22;9330;52.210;21.174;2024-03-08T03:00:20;-3.60;99.90
18408;DHT22;9330;52.210;21.174;2024-03-08T03:02:48;-3.60;99.90
18408;DHT22;9330;52.210;21.174;2024-03-08T03:05:17;-3.60;99.90
18408;DHT22;9330;52.210;21.174;2024-03-08T03:07:45;-3.60;99.90
18408;DHT22;9330;52.210;21.174;2024-03-08T03:10:12;-3.60;99.90
18408;DHT22;9330;52.210;21.174;2024-03-08T03:12:44;-3.60;99.90
18408;DHT22;9330;52.210;21.174;2024-03-08T03:15:11;-3.70;99.90
18408;DHT22;9330;52.210;21.174;2024-03-08T03:17:38;-3.70;99.90
18408;DHT22;9330;52.210;21.174;2024-03-08T03:20:06;-3.70;99.90
18408;DHT22;9330;52.210;21.174;2024-03-08T03:22:38;-3.70;99.90
18408;DHT22;9330;52.210;21.174;2024-03-08T03:25:07;-3.70;99.90
18408;DHT22;9330;52.210;21.174;2024-03-08T03:27:35;-3.70;99.90
18408;DHT22;9330;52.210;21.174;2024-03-08T03:30:05;-3.70;99.90
18408;DHT22;9330;52.210;21.174;2024-03-08T03:32:46;-3.70;99.90
18408;DHT22;9330;52.210;21.174;2024-03-08T03:35:14;-3.80;99.90
18408;DHT22;9330;52.210;21.174;2024-03-08T03:37:41;-3.70;99.90
18408;DHT22;9330;52.210;21.174;2024-03-08T03:40:11;-3.70;99.90
18408;DHT22;9330;52.210;21.174;2024-03-08T03:42:39;-3.70;99.90
18408;DHT22;9330;52.210;21.174;2024-03-08T03:45:08;-3.80;99.90
18408;DHT22;9330;52.210;21.174;2024-03-08T03:47:36;-3.80;99.90
18408;DHT22;9330;52.210;21.174;2024-03-08T03:50:04;-3.80;99.90
18408;DHT22;9330;52.210;21.174;2024-03-08T03:52:31;-3.80;99.90
18408;DHT22;9330;52.210;21.174;2024-03-08T03:54:58;-4.00;99.90
18408;DHT22;9330;52.210;21.174;2024-03-08T03:57:25;-4.00;99.90
18408;DHT22;9330;52.210;21.174;2024-03-08T03:59:52;-3.90;99.90
18408;DHT22;9330;52.210;21.174;2024-03-08T04:02:20;-4.00;99.90
18408;DHT22;9330;52.210;21.174;2024-03-08T04:04:47;-4.00;1.00
18408;DHT22;9330;52.210;21.174;2024-03-08T04:07:14;-4.00;1.00
18408;DHT22;9330;52.210;21.174;2024-03-08T04:09:42;-3.90;1.00
18408;DHT22;9330;52.210;21.174;2024-03-08T04:12:09;-3.90;1.00
18408;DHT22;9330;52.210;21.174;2024-03-08T04:14:36;-3.90;99.90
18408;DHT22;9330;52.210;21.174;2024-03-08T04:17:03;-4.00;1.00
18408;DHT22;9330;52.210;21.174;2024-03-08T04:19:31;-4.00;1.00
18408;DHT22;9330;52.210;21.174;2024-03-08T04:22:00;-4.10;1.00
18408;DHT22;9330;52.210;21.174;2024-03-08T04:24:26;-4.10;1.00
18408;DHT22;9330;52.210;21.174;2024-03-08T04:26:53;-4.00;1.00
18408;DHT22;9330;52.210;21.174;2024-03-08T04:29:20;-4.10;1.00
18408;DHT22;9330;52.210;21.174;2024-03-08T04:31:47;-4.00;99.90
18408;DHT22;9330;52.210;21.174;2024-03-08T04:34:14;-4.00;99.90
18408;DHT22;9330;52.210;21.174;2024-03-08T04:36:42;-4.10;99.90
18408;DHT22;9330;52.210;21.174;2024-03-08T04:39:09;-4.00;99.90
18408;DHT22;9330;52.210;21.174;2024-03-08T04:41:38;-4.00;99.90
18408;DHT22;9330;52.210;21.174;2024-03-08T04:44:06;-4.10;99.90
18408;DHT22;9330;52.210;21.174;2024-03-08T04:46:33;-4.10;99.90
18408;DHT22;9330;52.210;21.174;2024-03-08T04:49:01;-4.10;99.90
18408;DHT22;9330;52.210;21.174;2024-03-08T04:51:27;-4.20;99.90
18408;DHT22;9330;52.210;21.174;2024-03-08T04:53:56;-4.20;99.90
18408;DHT22;9330;52.210;21.174;2024-03-08T04:56:23;-4.20;99.90
18408;DHT22;9330;52.210;21.174;2024-03-08T04:58:51;-4.20;99.90
18408;DHT22;9330;52.210;21.174;2024-03-08T05:01:18;-4.20;99.90
18408;DHT22;9330;52.210;21.174;2024-03-08T05:03:44;-4.20;99.90
18408;DHT22;9330;52.210;21.174;2024-03-08T05:06:13;-4.30;99.90
18408;DHT22;9330;52.210;21.174;2024-03-08T05:08:39;-4.30;99.90
18408;DHT22;9330;52.210;21.174;2024-03-08T05:11:08;-4.30;99.90
18408;DHT22;9330;52.210;21.174;2024-03-08T05:13:35;-4.30;99.90
18408;DHT22;9330;52.210;21.174;2024-03-08T05:16:03;-4.20;99.90
18408;DHT22;9330;52.210;21.174;2024-03-08T05:18:30;-4.20;1.00
18408;DHT22;9330;52.210;21.174;2024-03-08T05:20:57;-4.20;99.90
18408;DHT22;9330;52.210;21.174;2024-03-08T05:23:24;-4.30;99.90
18408;DHT22;9330;52.210;21.174;2024-03-08T05:25:51;-4.30;99.90
18408;DHT22;9330;52.210;21.174;2024-03-08T05:28:19;-4.20;99.90
18408;DHT22;9330;52.210;21.174;2024-03-08T05:30:46;-4.20;99.90
18408;DHT22;9330;52.210;21.174;2024-03-08T05:33:13;-4.30;1.00
18408;DHT22;9330;52.210;21.174;2024-03-08T05:35:40;-4.20;99.90
18408;DHT22;9330;52.210;21.174;2024-03-08T05:38:07;-4.20;1.00
18408;DHT22;9330;52.210;21.174;2024-03-08T05:40:33;-4.20;1.00
18408;DHT22;9330;52.210;21.174;2024-03-08T05:43:00;-4.20;1.00
18408;DHT22;9330;52.210;21.174;2024-03-08T05:45:28;-4.10;99.90
18408;DHT22;9330;52.210;21.174;2024-03-08T05:47:55;-4.10;99.90
18408;DHT22;9330;52.210;21.174;2024-03-08T05:50:22;-4.10;99.90
18408;DHT22;9330;52.210;21.174;2024-03-08T05:52:48;-4.10;99.90
18408;DHT22;9330;52.210;21.174;2024-03-08T05:55:15;-4.00;99.90
18408;DHT22;9330;52.210;21.174;2024-03-08T05:57:42;-4.00;99.90
18408;DHT22;9330;52.210;21.174;2024-03-08T06:00:10;-4.00;99.90
18408;DHT22;9330;52.210;21.174;2024-03-08T06:02:39;-3.90;99.90
18408;DHT22;9330;52.210;21.174;2024-03-08T06:05:08;-3.80;99.90
18408;DHT22;9330;52.210;21.174;2024-03-08T06:07:35;-3.80;1.00
18408;DHT22;9330;52.210;21.174;2024-03-08T06:10:02;-3.80;1.00
18408;DHT22;9330;52.210;21.174;2024-03-08T06:12:29;-3.70;1.00
18408;DHT22;9330;52.210;21.174;2024-03-08T06:14:59;-3.60;1.00
18408;DHT22;9330;52.210;21.174;2024-03-08T06:17:26;-3.50;1.00
18408;DHT22;9330;52.210;21.174;2024-03-08T06:19:54;-3.50;1.00
18408;DHT22;9330;52.210;21.174;2024-03-08T06:22:21;-3.40;1.00
18408;DHT22;9330;52.210;21.174;2024-03-08T06:24:47;-3.30;1.00
18408;DHT22;9330;52.210;21.174;2024-03-08T06:27:14;-3.00;1.00
18408;DHT22;9330;52.210;21.174;2024-03-08T06:29:43;-2.80;1.00
18408;DHT22;9330;52.210;21.174;2024-03-08T06:32:09;-2.60;1.00
18408;DHT22;9330;52.210;21.174;2024-03-08T06:34:36;-2.30;1.00
18408;DHT22;9330;52.210;21.174;2024-03-08T06:37:04;-2.10;1.00
18408;DHT22;9330;52.210;21.174;2024-03-08T06:39:31;-1.90;99.90
18408;DHT22;9330;52.210;21.174;2024-03-08T06:41:59;-1.70;99.90
18408;DHT22;9330;52.210;21.174;2024-03-08T06:44:26;-1.40;99.90
18408;DHT22;9330;52.210;21.174;2024-03-08T06:46:53;-1.20;99.90
18408;DHT22;9330;52.210;21.174;2024-03-08T06:49:20;-1.10;99.90
18408;DHT22;9330;52.210;21.174;2024-03-08T06:51:47;-0.90;99.90
18408;DHT22;9330;52.210;21.174;2024-03-08T06:54:15;-0.80;99.90
18408;DHT22;9330;52.210;21.174;2024-03-08T06:56:42;-0.60;99.90
18408;DHT22;9330;52.210;21.174;2024-03-08T06:59:09;-0.40;99.90
18408;DHT22;9330;52.210;21.174;2024-03-08T07:01:36;-0.30;98.50
18408;DHT22;9330;52.210;21.174;2024-03-08T07:04:04;-0.10;48.30
18408;DHT22;9330;52.210;21.174;2024-03-08T07:06:32;0.20;21.10
18408;DHT22;9330;52.210;21.174;2024-03-08T07:08:59;0.20;9.20
18408;DHT22;9330;52.210;21.174;2024-03-08T07:11:28;0.30;23.40
18408;DHT22;9330;52.210;21.174;2024-03-08T07:13:54;0.60;1.20
18408;DHT22;9330;52.210;21.174;2024-03-08T07:16:21;0.60;1.00
18408;DHT22;9330;52.210;21.174;2024-03-08T07:18:49;0.70;1.00
18408;DHT22;9330;52.210;21.174;2024-03-08T07:21:18;0.80;1.00
18408;DHT22;9330;52.210;21.174;2024-03-08T07:23:45;0.90;1.00
18408;DHT22;9330;52.210;21.174;2024-03-08T07:26:40;1.00;1.00
18408;DHT22;9330;52.210;21.174;2024-03-08T07:29:07;1.20;1.00
18408;DHT22;9330;52.210;21.174;2024-03-08T07:31:34;1.40;1.00
18408;DHT22;9330;52.210;21.174;2024-03-08T07:34:15;1.40;1.00
18408;DHT22;9330;52.210;21.174;2024-03-08T07:36:42;1.50;99.90
18408;DHT22;9330;52.210;21.174;2024-03-08T07:39:09;1.60;99.90
18408;DHT22;9330;52.210;21.174;2024-03-08T07:41:37;1.90;1.00
18408;DHT22;9330;52.210;21.174;2024-03-08T07:44:07;2.00;17.20
18408;DHT22;9330;52.210;21.174;2024-03-08T07:46:34;2.00;92.40
18408;DHT22;9330;52.210;21.174;2024-03-08T07:49:02;2.10;1.00
18408;DHT22;9330;52.210;21.174;2024-03-08T07:51:28;2.20;44.50
18408;DHT22;9330;52.210;21.174;2024-03-08T07:53:56;2.50;1.00
18408;DHT22;9330;52.210;21.174;2024-03-08T07:56:22;2.60;1.00
18408;DHT22;9330;52.210;21.174;2024-03-08T07:58:50;2.60;1.00
18408;DHT22;9330;52.210;21.174;2024-03-08T08:01:20;3.00;1.00
18408;DHT22;9330;52.210;21.174;2024-03-08T08:03:46;3.50;1.00
18408;DHT22;9330;52.210;21.174;2024-03-08T08:06:15;3.80;1.00
18408;DHT22;9330;52.210;21.174;2024-03-08T08:08:42;4.00;13.40
18408;DHT22;9330;52.210;21.174;2024-03-08T08:11:09;4.40;1.00
18408;DHT22;9330;52.210;21.174;2024-03-08T08:13:37;4.70;99.90
18408;DHT22;9330;52.210;21.174;2024-03-08T08:16:04;4.90;1.00
18408;DHT22;9330;52.210;21.174;2024-03-08T08:18:33;5.10;1.00
18408;DHT22;9330;52.210;21.174;2024-03-08T08:21:00;5.40;1.00
18408;DHT22;9330;52.210;21.174;2024-03-08T08:23:27;6.10;99.90
18408;DHT22;9330;52.210;21.174;2024-03-08T08:25:55;6.70;1.00
18408;DHT22;9330;52.210;21.174;2024-03-08T08:28:21;7.20;1.00
18408;DHT22;9330;52.210;21.174;2024-03-08T08:30:48;7.00;99.90
18408;DHT22;9330;52.210;21.174;2024-03-08T08:33:15;6.70;1.00
18408;DHT22;9330;52.210;21.174;2024-03-08T08:35:44;6.40;1.00
18408;DHT22;9330;52.210;21.174;2024-03-08T08:38:13;6.60;1.00
18408;DHT22;9330;52.210;21.174;2024-03-08T08:40:40;6.90;1.00
18408;DHT22;9330;52.210;21.174;2024-03-08T08:43:07;6.70;1.00
18408;DHT22;9330;52.210;21.174;2024-03-08T08:45:34;6.30;1.00
18408;DHT22;9330;52.210;21.174;2024-03-08T08:48:01;6.70;1.00
18408;DHT22;9330;52.210;21.174;2024-03-08T08:50:30;6.80;99.90
18408;DHT22;9330;52.210;21.174;2024-03-08T08:52:59;6.70;99.90
18408;DHT22;9330;52.210;21.174;2024-03-08T08:55:26;6.60;1.00
18408;DHT22;9330;52.210;21.174;2024-03-08T08:57:53;6.60;1.00
18408;DHT22;9330;52.210;21.174;2024-03-08T09:00:20;6.80;1.00
18408;DHT22;9330;52.210;21.174;2024-03-08T09:02:49;6.90;1.00
18408;DHT22;9330;52.210;21.174;2024-03-08T09:05:16;6.90;1.00
18408;DHT22;9330;52.210;21.174;2024-03-08T09:07:43;7.40;1.00
18408;DHT22;9330;52.210;21.174;2024-03-08T09:10:12;7.40;1.00
18408;DHT22;9330;52.210;21.174;2024-03-08T09:12:40;7.80;1.00
18408;DHT22;9330;52.210;21.174;2024-03-08T09:15:09;8.20;99.90
18408;DHT22;9330;52.210;21.174;2024-03-08T09:17:36;7.70;1.00
18408;DHT22;9330;52.210;21.174;2024-03-08T09:20:06;8.10;1.00
18408;DHT22;9330;52.210;21.174;2024-03-08T09:22:34;7.90;62.70
18408;DHT22;9330;52.210;21.174;2024-03-08T09:25:01;7.50;1.00
18408;DHT22;9330;52.210;21.174;2024-03-08T09:27:32;7.50;99.90
18408;DHT22;9330;52.210;21.174;2024-03-08T09:29:59;7.50;1.00
18408;DHT22;9330;52.210;21.174;2024-03-08T09:32:26;7.40;99.90
18408;DHT22;9330;52.210;21.174;2024-03-08T09:34:53;7.30;1.00
18408;DHT22;9330;52.210;21.174;2024-03-08T09:37:21;7.60;2.20
18408;DHT22;9330;52.210;21.174;2024-03-08T09:39:48;7.40;1.00
18408;DHT22;9330;52.210;21.174;2024-03-08T09:42:15;7.50;1.00
18408;DHT22;9330;52.210;21.174;2024-03-08T09:44:46;7.30;1.00
18408;DHT22;9330;52.210;21.174;2024-03-08T09:47:13;7.00;97.30
18408;DHT22;9330;52.210;21.174;2024-03-08T09:49:40;6.80;99.90
18408;DHT22;9330;52.210;21.174;2024-03-08T09:52:11;6.60;1.00
18408;DHT22;9330;52.210;21.174;2024-03-08T09:54:41;6.30;1.00
18408;DHT22;9330;52.210;21.174;2024-03-08T09:57:10;6.10;1.00
18408;DHT22;9330;52.210;21.174;2024-03-08T09:59:37;6.10;42.90
18408;DHT22;9330;52.210;21.174;2024-03-08T10:02:15;6.30;1.00
18408;DHT22;9330;52.210;21.174;2024-03-08T10:04:43;6.30;99.90
18408;DHT22;9330;52.210;21.174;2024-03-08T10:07:12;6.20;1.00
18408;DHT22;9330;52.210;21.174;2024-03-08T10:09:39;6.30;1.00
18408;DHT22;9330;52.210;21.174;2024-03-08T10:12:07;6.30;1.00
18408;DHT22;9330;52.210;21.174;2024-03-08T10:14:39;6.40;1.00
18408;DHT22;9330;52.210;21.174;2024-03-08T10:17:07;6.40;1.00
18408;DHT22;9330;52.210;21.174;2024-03-08T10:19:35;6.40;99.90
18408;DHT22;9330;52.210;21.174;2024-03-08T10:22:02;6.50;99.90
18408;DHT22;9330;52.210;21.174;2024-03-08T10:24:30;6.50;99.90
18408;DHT22;9330;52.210;21.174;2024-03-08T10:26:59;6.60;1.00
18408;DHT22;9330;52.210;21.174;2024-03-08T10:29:27;6.60;1.00
18408;DHT22;9330;52.210;21.174;2024-03-08T10:31:54;6.70;1.00
18408;DHT22;9330;52.210;21.174;2024-03-08T10:34:23;6.80;8.50
18408;DHT22;9330;52.210;21.174;2024-03-08T10:36:51;6.90;1.00
18408;DHT22;9330;52.210;21.174;2024-03-08T10:39:22;6.90;99.90
18408;DHT22;9330;52.210;21.174;2024-03-08T10:41:53;6.80;99.90
18408;DHT22;9330;52.210;21.174;2024-03-08T10:44:32;6.90;1.00
18408;DHT22;9330;52.210;21.174;2024-03-08T10:47:06;7.00;1.00
18408;DHT22;9330;52.210;21.174;2024-03-08T10:49:38;7.00;1.00
18408;DHT22;9330;52.210;21.174;2024-03-08T10:52:06;7.00;1.00
18408;DHT22;9330;52.210;21.174;2024-03-08T10:54:37;7.00;1.00
18408;DHT22;9330;52.210;21.174;2024-03-08T10:57:05;7.00;1.00
18408;DHT22;9330;52.210;21.174;2024-03-08T10:59:34;6.90;1.00
18408;DHT22;9330;52.210;21.174;2024-03-08T11:02:01;7.10;1.00
18408;DHT22;9330;52.210;21.174;2024-03-08T11:04:31;7.20;1.00
18408;DHT22;9330;52.210;21.174;2024-03-08T11:07:01;7.30;1.00
18408;DHT22;9330;52.210;21.174;2024-03-08T11:09:35;7.30;99.90
18408;DHT22;9330;52.210;21.174;2024-03-08T11:12:27;7.50;1.00
18408;DHT22;9330;52.210;21.174;2024-03-08T11:14:57;7.50;1.00
18408;DHT22;9330;52.210;21.174;2024-03-08T11:17:40;7.50;99.90
18408;DHT22;9330;52.210;21.174;2024-03-08T11:20:11;7.50;1.00
18408;DHT22;9330;52.210;21.174;2024-03-08T11:22:47;7.60;99.90
18408;DHT22;9330;52.210;21.174;2024-03-08T11:29:32;7.80;1.00
18408;DHT22;9330;52.210;21.174;2024-03-08T11:32:14;7.90;1.00
18408;DHT22;9330;52.210;21.174;2024-03-08T11:35:07;8.00;99.90
18408;DHT22;9330;52.210;21.174;2024-03-08T11:37:34;8.10;1.00
18408;DHT22;9330;52.210;21.174;2024-03-08T11:40:05;8.00;1.00
18408;DHT22;9330;52.210;21.174;2024-03-08T11:42:44;8.10;1.00
18408;DHT22;9330;52.210;21.174;2024-03-08T11:45:12;8.20;1.00
18408;DHT22;9330;52.210;21.174;2024-03-08T11:47:44;8.30;65.40
18408;DHT22;9330;52.210;21.174;2024-03-08T11:50:12;8.30;99.90
18408;DHT22;9330;52.210;21.174;2024-03-08T11:52:39;8.40;99.90
18408;DHT22;9330;52.210;21.174;2024-03-08T11:55:07;8.50;1.00
18408;DHT22;9330;52.210;21.174;2024-03-08T11:57:34;8.50;1.00
18408;DHT22;9330;52.210;21.174;2024-03-08T12:00:03;8.50;1.00
18408;DHT22;9330;52.210;21.174;2024-03-08T12:02:33;8.60;1.00
18408;DHT22;9330;52.210;21.174;2024-03-08T12:05:04;8.50;99.90
18408;DHT22;9330;52.210;21.174;2024-03-08T12:07:35;8.50;99.90
18408;DHT22;9330;52.210;21.174;2024-03-08T12:10:15;8.70;1.00
18408;DHT22;9330;52.210;21.174;2024-03-08T12:12:43;8.50;99.90
18408;DHT22;9330;52.210;21.174;2024-03-08T12:15:11;8.50;1.00
18408;DHT22;9330;52.210;21.174;2024-03-08T12:17:38;8.70;1.00
18408;DHT22;9330;52.210;21.174;2024-03-08T12:20:12;8.90;1.00
18408;DHT22;9330;52.210;21.174;2024-03-08T12:22:41;8.90;1.00
18408;DHT22;9330;52.210;21.174;2024-03-08T12:25:09;9.40;1.00
18408;DHT22;9330;52.210;21.174;2024-03-08T12:27:37;9.80;1.00
18408;DHT22;9330;52.210;21.174;2024-03-08T12:30:18;10.30;1.00
18408;DHT22;9330;52.210;21.174;2024-03-08T12:32:51;11.00;99.90
18408;DHT22;9330;52.210;21.174;2024-03-08T12:35:20;11.80;1.00
18408;DHT22;9330;52.210;21.174;2024-03-08T12:37:49;12.40;1.00
18408;DHT22;9330;52.210;21.174;2024-03-08T12:40:17;12.50;99.90
18408;DHT22;9330;52.210;21.174;2024-03-08T12:42:44;12.30;1.00
18408;DHT22;9330;52.210;21.174;2024-03-08T12:45:13;12.50;1.00
18408;DHT22;9330;52.210;21.174;2024-03-08T12:47:41;12.50;1.00
18408;DHT22;9330;52.210;21.174;2024-03-08T12:50:10;12.00;1.00
18408;DHT22;9330;52.210;21.174;2024-03-08T12:52:37;12.00;7.70
18408;DHT22;9330;52.210;21.174;2024-03-08T12:55:04;12.30;1.00
18408;DHT22;9330;52.210;21.174;2024-03-08T12:57:33;12.30;99.90
18408;DHT22;9330;52.210;21.174;2024-03-08T13:00:01;12.00;99.90
18408;DHT22;9330;52.210;21.174;2024-03-08T13:02:29;11.30;99.90
18408;DHT22;9330;52.210;21.174;2024-03-08T13:04:58;10.80;99.90
18408;DHT22;9330;52.210;21.174;2024-03-08T13:07:26;10.10;99.90
18408;DHT22;9330;52.210;21.174;2024-03-08T13:09:53;10.00;99.90
18408;DHT22;9330;52.210;21.174;2024-03-08T13:12:20;9.80;31.70
18408;DHT22;9330;52.210;21.174;2024-03-08T13:14:47;9.70;1.00
18408;DHT22;9330;52.210;21.174;2024-03-08T13:17:14;9.60;1.00
18408;DHT22;9330;52.210;21.174;2024-03-08T13:19:41;9.50;4.80
18408;DHT22;9330;52.210;21.174;2024-03-08T13:22:10;9.40;1.00
18408;DHT22;9330;52.210;21.174;2024-03-08T13:24:38;9.40;1.00
18408;DHT22;9330;52.210;21.174;2024-03-08T13:27:07;9.30;1.00
18408;DHT22;9330;52.210;21.174;2024-03-08T13:29:45;9.10;1.00
18408;DHT22;9330;52.210;21.174;2024-03-08T13:32:13;9.00;53.50
18408;DHT22;9330;52.210;21.174;2024-03-08T13:34:41;8.90;1.00
18408;DHT22;9330;52.210;21.174;2024-03-08T13:37:09;8.80;99.90
18408;DHT22;9330;52.210;21.174;2024-03-08T13:39:37;8.80;99.90
18408;DHT22;9330;52.210;21.174;2024-03-08T13:42:09;8.80;99.90
18408;DHT22;9330;52.210;21.174;2024-03-08T13:44:39;8.70;99.90
18408;DHT22;9330;52.210;21.174;2024-03-08T13:47:06;8.60;99.90
18408;DHT22;9330;52.210;21.174;2024-03-08T13:49:33;8.70;99.90
18408;DHT22;9330;52.210;21.174;2024-03-08T13:52:00;8.70;99.90
18408;DHT22;9330;52.210;21.174;2024-03-08T13:54:28;8.70;99.90
18408;DHT22;9330;52.210;21.174;2024-03-08T13:56:57;8.70;99.90
18408;DHT22;9330;52.210;21.174;2024-03-08T13:59:24;8.70;99.90
18408;DHT22;9330;52.210;21.174;2024-03-08T14:01:55;8.60;99.90
18408;DHT22;9330;52.210;21.174;2024-03-08T14:04:22;8.70;99.90
18408;DHT22;9330;52.210;21.174;2024-03-08T14:06:49;8.70;1.00
18408;DHT22;9330;52.210;21.174;2024-03-08T14:09:17;8.70;1.00
18408;DHT22;9330;52.210;21.174;2024-03-08T14:11:46;8.50;1.00
18408;DHT22;9330;52.210;21.174;2024-03-08T14:14:12;8.60;99.90
18408;DHT22;9330;52.210;21.174;2024-03-08T14:16:39;8.60;1.00
18408;DHT22;9330;52.210;21.174;2024-03-08T14:19:06;8.40;1.00
18408;DHT22;9330;52.210;21.174;2024-03-08T14:21:35;8.60;1.00
18408;DHT22;9330;52.210;21.174;2024-03-08T14:24:05;8.50;1.00
18408;DHT22;9330;52.210;21.174;2024-03-08T14:26:32;8.50;99.90
18408;DHT22;9330;52.210;21.174;2024-03-08T14:29:00;8.50;1.00
18408;DHT22;9330;52.210;21.174;2024-03-08T14:31:27;8.50;1.00
18408;DHT22;9330;52.210;21.174;2024-03-08T14:33:55;8.40;1.00
18408;DHT22;9330;52.210;21.174;2024-03-08T14:36:24;8.40;1.00
18408;DHT22;9330;52.210;21.174;2024-03-08T14:38:51;8.40;1.00
18408;DHT22;9330;52.210;21.174;2024-03-08T14:41:19;8.30;1.00
18408;DHT22;9330;52.210;21.174;2024-03-08T14:43:45;8.30;1.00
18408;DHT22;9330;52.210;21.174;2024-03-08T14:46:15;8.30;1.00
18408;DHT22;9330;52.210;21.174;2024-03-08T14:48:43;8.30;1.00
18408;DHT22;9330;52.210;21.174;2024-03-08T14:51:10;8.30;1.00
18408;DHT22;9330;52.210;21.174;2024-03-08T14:53:40;8.20;1.00
18408;DHT22;9330;52.210;21.174;2024-03-08T14:56:08;8.20;1.00
18408;DHT22;9330;52.210;21.174;2024-03-08T14:58:35;8.20;1.00
18408;DHT22;9330;52.210;21.174;2024-03-08T15:01:04;8.20;99.90
18408;DHT22;9330;52.210;21.174;2024-03-08T15:03:35;8.20;99.90
18408;DHT22;9330;52.210;21.174;2024-03-08T15:06:03;8.10;1.00
18408;DHT22;9330;52.210;21.174;2024-03-08T15:08:34;8.10;1.00
18408;DHT22;9330;52.210;21.174;2024-03-08T15:11:01;8.20;1.00
18408;DHT22;9330;52.210;21.174;2024-03-08T15:13:27;8.00;1.00
18408;DHT22;9330;52.210;21.174;2024-03-08T15:16:05;8.00;1.00
18408;DHT22;9330;52.210;21.174;2024-03-08T15:18:35;8.00;1.00
18408;DHT22;9330;52.210;21.174;2024-03-08T15:21:04;8.00;1.00
18408;DHT22;9330;52.210;21.174;2024-03-08T15:23:33;7.90;29.70
18408;DHT22;9330;52.210;21.174;2024-03-08T15:26:00;8.00;1.00
18408;DHT22;9330;52.210;21.174;2024-03-08T15:28:28;7.90;1.00
18408;DHT22;9330;52.210;21.174;2024-03-08T15:31:02;7.80;1.00
18408;DHT22;9330;52.210;21.174;2024-03-08T15:33:33;7.80;1.00
18408;DHT22;9330;52.210;21.174;2024-03-08T15:36:00;7.70;1.00
18408;DHT22;9330;52.210;21.174;2024-03-08T15:38:33;7.60;1.00
18408;DHT22;9330;52.210;21.174;2024-03-08T15:41:00;7.50;1.00
18408;DHT22;9330;52.210;21.174;2024-03-08T15:43:27;7.50;1.00
18408;DHT22;9330;52.210;21.174;2024-03-08T15:45:54;7.50;1.00
18408;DHT22;9330;52.210;21.174;2024-03-08T15:48:21;7.50;1.00
18408;DHT22;9330;52.210;21.174;2024-03-08T15:50:49;7.30;1.00
18408;DHT22;9330;52.210;21.174;2024-03-08T15:53:16;7.30;1.00
18408;DHT22;9330;52.210;21.174;2024-03-08T15:55:44;7.20;1.00